IBB6KL GCXO-LEPA
Flight info
| Callsign | IBB6KL |
|---|---|
| Flight time | N/A |
| Altitude | 34000 |
| Route | KORAL UG5 SONSO DCT NIRAL UN871 OSDAM UM985 BARPA M985 PIMOS M445 RIXUR N851 RUXET |
| Aircraft | CRJX/M-SDFGIRWY/S |
Departure
| Time | 2026-05-01 13:26 |
|---|---|
| Airport | Tenerife Norte-Ciudad de La Laguna Airport (GCXO) |
Arrival
| Time | N/A |
|---|---|
| Airport | Palma de Mallorca Airport (LEPA) |
| Time | Latitude | Longitude | Altitude | Speed | Heading |
|---|---|---|---|---|---|
| 2026-05-01 12:51 | 28.48754 | -16.34959 | 2074 ft | 0 kts | 21° |
| 2026-05-01 13:17 | 28.48690 | -16.34987 | 2077 ft | 3 kts | 21° |
| 2026-05-01 13:17 | 28.48668 | -16.34991 | 2081 ft | 4 kts | 340° |
| 2026-05-01 13:18 | 28.48649 | -16.34959 | 2082 ft | 2 kts | 290° |
| 2026-05-01 13:21 | 28.48650 | -16.34962 | 2082 ft | 1 kts | 291° |
| 2026-05-01 13:21 | 28.48659 | -16.34988 | 2082 ft | 6 kts | 290° |
| 2026-05-01 13:22 | 28.48676 | -16.35040 | 2081 ft | 8 kts | 290° |
| 2026-05-01 13:22 | 28.48696 | -16.35102 | 2080 ft | 8 kts | 290° |
| 2026-05-01 13:22 | 28.48717 | -16.35167 | 2079 ft | 9 kts | 290° |
| 2026-05-01 13:22 | 28.48739 | -16.35235 | 2078 ft | 10 kts | 291° |
| 2026-05-01 13:23 | 28.48768 | -16.35319 | 2073 ft | 14 kts | 291° |
| 2026-05-01 13:23 | 28.48806 | -16.35431 | 2072 ft | 16 kts | 291° |
| 2026-05-01 13:23 | 28.48843 | -16.35543 | 2068 ft | 11 kts | 290° |
| 2026-05-01 13:23 | 28.48870 | -16.35630 | 2066 ft | 12 kts | 282° |
| 2026-05-01 13:24 | 28.48858 | -16.35720 | 2066 ft | 11 kts | 232° |
| 2026-05-01 13:24 | 28.48806 | -16.35753 | 2068 ft | 6 kts | 174° |
| 2026-05-01 13:24 | 28.48789 | -16.35732 | 2069 ft | 3 kts | 106° |
| 2026-05-01 13:25 | 28.48783 | -16.35713 | 2070 ft | 11 kts | 109° |
| 2026-05-01 13:25 | 28.48686 | -16.35423 | 2077 ft | 73 kts | 111° |
| 2026-05-01 13:25 | 28.48424 | -16.34638 | 2071 ft | 136 kts | 110° |
| 2026-05-01 13:25 | 28.48047 | -16.33512 | 2269 ft | 157 kts | 111° |
| 2026-05-01 13:26 | 28.47612 | -16.32361 | 2849 ft | 161 kts | 115° |
| 2026-05-01 13:26 | 28.47077 | -16.31225 | 3303 ft | 169 kts | 121° |
| 2026-05-01 13:26 | 28.46469 | -16.30090 | 3747 ft | 168 kts | 123° |
| 2026-05-01 13:26 | 28.45838 | -16.28958 | 4135 ft | 172 kts | 122° |
| 2026-05-01 13:27 | 28.45233 | -16.27771 | 4600 ft | 174 kts | 121° |
| 2026-05-01 13:27 | 28.44651 | -16.26571 | 5063 ft | 175 kts | 120° |
| 2026-05-01 13:27 | 28.43495 | -16.23962 | 5710 ft | 198 kts | 118° |
| 2026-05-01 13:28 | 28.42163 | -16.21035 | 6433 ft | 226 kts | 120° |
| 2026-05-01 13:28 | 28.41414 | -16.19400 | 6857 ft | 240 kts | 120° |
| 2026-05-01 13:29 | 28.39973 | -16.15878 | 7880 ft | 264 kts | 100° |
| 2026-05-01 13:29 | 28.41257 | -16.11821 | 8749 ft | 294 kts | 51° |
| 2026-05-01 13:30 | 28.46528 | -16.04089 | 11413 ft | 320 kts | 51° |
| 2026-05-01 13:31 | 28.49394 | -16.00129 | 12625 ft | 335 kts | 50° |
| 2026-05-01 13:31 | 28.54021 | -15.93472 | 14162 ft | 368 kts | 53° |
| 2026-05-01 13:32 | 28.57157 | -15.88775 | 15494 ft | 378 kts | 53° |
| 2026-05-01 13:33 | 28.61994 | -15.81496 | 17584 ft | 391 kts | 52° |
| 2026-05-01 13:33 | 28.65311 | -15.76527 | 18916 ft | 398 kts | 52° |